Time;durP1;ratioP1;P1;durP2;ratioP2;P2;SDS_P1;SDS_P2;PMS_P1;PMS_P2;Temp;Humidity;BMP_temperature;BMP_pressure;BME280_temperature;BME280_humidity;BME280_pressure;Samples;Min_cycle;Max_cycle;Signal;HPM_P1;HPM_P2
2020/12/09 00:00:35;;;;;;;60.75;39.13;;;2.70;99.90;;;;;;5039152;28;20271;-77
2020/12/09 00:03:02;;;;;;;60.83;37.08;;;2.60;99.90;;;;;;5039578;28;20275;-77
2020/12/09 00:05:28;;;;;;;64.05;38.58;;;2.70;99.90;;;;;;5035466;28;20259;-78
2020/12/09 00:07:55;;;;;;;72.00;36.40;;;2.70;99.90;;;;;;5034521;28;20298;-77
2020/12/09 00:10:21;;;;;;;62.25;36.50;;;2.70;99.90;;;;;;5034567;28;20295;-77
2020/12/09 00:12:47;;;;;;;64.60;38.63;;;2.70;99.90;;;;;;5036728;28;20202;-78
2020/12/09 00:15:13;;;;;;;68.80;38.55;;;2.60;99.90;;;;;;5035178;28;20224;-78
2020/12/09 00:17:40;;;;;;;69.72;39.80;;;2.60;99.90;;;;;;5033911;28;20684;-78
2020/12/09 00:20:07;;;;;;;62.20;37.78;;;2.60;99.90;;;;;;5034700;28;20226;-78
2020/12/09 00:22:34;;;;;;;66.65;38.70;;;2.60;99.90;;;;;;5034629;28;20204;-78
2020/12/09 00:25:01;;;;;;;67.65;37.85;;;2.70;99.90;;;;;;5034153;28;20237;-78
2020/12/09 00:27:27;;;;;;;66.82;39.72;;;2.70;99.90;;;;;;5034550;28;20188;-79
2020/12/09 00:29:53;;;;;;;63.70;37.97;;;2.70;99.90;;;;;;5035408;28;20207;-78
2020/12/09 00:32:19;;;;;;;59.13;36.67;;;2.70;99.90;;;;;;5033023;28;20222;-77
2020/12/09 00:34:46;;;;;;;64.78;37.65;;;2.70;99.90;;;;;;5036471;28;20250;-78
2020/12/09 00:37:13;;;;;;;60.42;37.28;;;2.80;99.90;;;;;;5037647;28;20217;-78
2020/12/09 00:39:39;;;;;;;61.38;37.47;;;2.70;99.90;;;;;;5037600;28;20210;-78
2020/12/09 00:42:06;;;;;;;62.78;38.38;;;2.80;99.90;;;;;;5037779;28;20558;-78
2020/12/09 00:44:32;;;;;;;61.10;38.85;;;2.80;99.90;;;;;;5037237;28;20223;-78
2020/12/09 00:46:58;;;;;;;64.32;36.45;;;2.70;99.90;;;;;;5037511;28;20206;-78
2020/12/09 00:49:24;;;;;;;61.58;36.25;;;2.60;99.90;;;;;;5038174;28;20218;-79
2020/12/09 00:51:51;;;;;;;70.25;38.50;;;2.70;99.90;;;;;;5037737;28;20291;-78
2020/12/09 00:54:18;;;;;;;65.88;36.47;;;2.70;99.90;;;;;;5037917;28;20204;-78
2020/12/09 00:56:45;;;;;;;58.53;36.28;;;2.70;99.90;;;;;;5037430;28;20301;-78
2020/12/09 00:59:11;;;;;;;60.65;36.70;;;2.80;99.90;;;;;;5038984;28;20203;-78
2020/12/09 01:01:38;;;;;;;62.95;37.67;;;2.70;99.90;;;;;;5037686;28;20203;-78
2020/12/09 01:04:04;;;;;;;67.07;38.58;;;2.70;99.90;;;;;;5036839;28;20242;-78
2020/12/09 01:06:33;;;;;;;63.67;38.90;;;2.80;99.90;;;;;;5036525;28;20223;-78
2020/12/09 01:09:01;;;;;;;60.25;38.17;;;2.70;99.90;;;;;;5036641;28;20235;-78
2020/12/09 01:11:28;;;;;;;60.58;37.45;;;2.70;99.90;;;;;;5036807;28;20672;-78
2020/12/09 01:13:54;;;;;;;70.90;38.67;;;2.70;99.90;;;;;;5036895;28;20206;-78
2020/12/09 01:16:20;;;;;;;59.00;36.90;;;2.70;99.90;;;;;;5037135;28;20245;-78
2020/12/09 01:18:48;;;;;;;57.13;35.78;;;2.70;99.90;;;;;;5037291;28;20294;-78
2020/12/09 01:21:15;;;;;;;62.75;37.78;;;2.70;99.90;;;;;;5037306;28;20203;-78
2020/12/09 01:23:41;;;;;;;59.40;37.03;;;2.70;99.90;;;;;;5037369;28;20242;-78
2020/12/09 01:26:11;;;;;;;63.92;38.00;;;2.70;99.90;;;;;;5036866;28;20228;-78
2020/12/09 01:28:38;;;;;;;61.90;37.42;;;2.70;99.90;;;;;;5037806;28;20204;-78
2020/12/09 01:31:05;;;;;;;70.60;40.47;;;2.70;99.90;;;;;;5040581;28;20295;-78
2020/12/09 01:33:31;;;;;;;63.55;37.88;;;2.70;99.90;;;;;;5037701;28;20204;-78
2020/12/09 01:35:57;;;;;;;77.93;40.85;;;2.70;99.90;;;;;;5037143;28;20599;-78
2020/12/09 01:38:24;;;;;;;70.80;41.05;;;2.60;99.90;;;;;;5039714;28;20200;-78
2020/12/09 01:40:50;;;;;;;70.43;39.92;;;2.60;99.90;;;;;;5042063;28;20203;-78
2020/12/09 01:43:16;;;;;;;69.47;39.08;;;2.60;99.90;;;;;;5043856;28;20223;-78
2020/12/09 01:45:43;;;;;;;61.50;39.47;;;2.60;99.90;;;;;;5036925;28;20224;-78
2020/12/09 01:48:11;;;;;;;65.32;39.92;;;2.60;99.90;;;;;;5036790;28;20215;-78
2020/12/09 01:50:37;;;;;;;71.75;41.20;;;2.60;99.90;;;;;;5036899;28;20216;-78
2020/12/09 01:53:04;;;;;;;77.95;43.55;;;2.60;99.90;;;;;;5036765;28;20210;-78
2020/12/09 01:55:30;;;;;;;72.40;43.03;;;2.50;99.90;;;;;;5036368;28;20220;-78
2020/12/09 01:57:57;;;;;;;71.32;41.45;;;2.50;99.90;;;;;;5036567;28;20241;-78
2020/12/09 02:00:23;;;;;;;76.20;41.38;;;2.60;99.90;;;;;;5038984;28;20574;-78
2020/12/09 02:02:51;;;;;;;68.03;40.63;;;2.50;99.90;;;;;;5036394;28;20204;-78
2020/12/09 02:05:17;;;;;;;66.70;40.28;;;2.50;99.90;;;;;;5036038;28;20226;-78
2020/12/09 02:07:43;;;;;;;65.80;40.00;;;2.60;99.90;;;;;;5035997;28;20330;-77
2020/12/09 02:10:12;;;;;;;75.53;41.85;;;2.60;99.90;;;;;;5034318;28;20203;-77
2020/12/09 02:12:40;;;;;;;72.82;42.28;;;2.60;99.90;;;;;;5033934;28;20207;-77
2020/12/09 02:15:07;;;;;;;73.30;41.58;;;2.60;99.90;;;;;;5033640;28;20220;-77
2020/12/09 02:17:34;;;;;;;76.53;42.40;;;2.60;99.90;;;;;;5034501;28;20206;-77
2020/12/09 02:20:01;;;;;;;71.97;41.80;;;2.60;99.90;;;;;;5033773;28;20291;-78
2020/12/09 02:22:28;;;;;;;75.07;41.70;;;2.60;99.90;;;;;;5033753;28;20200;-77
2020/12/09 02:24:54;;;;;;;68.53;39.50;;;2.60;99.90;;;;;;5033449;28;20285;-76
2020/12/09 02:27:21;;;;;;;67.40;39.75;;;2.60;99.90;;;;;;5033730;28;20195;-77
2020/12/09 02:29:47;;;;;;;65.40;39.45;;;2.70;99.90;;;;;;5033433;28;20676;-76
2020/12/09 02:32:13;;;;;;;73.43;43.30;;;2.60;99.90;;;;;;5034022;28;20227;-77
2020/12/09 02:34:39;;;;;;;82.53;44.65;;;2.60;99.90;;;;;;5033934;28;20254;-76
2020/12/09 02:37:06;;;;;;;72.97;41.78;;;2.60;99.90;;;;;;5034180;28;20631;-79
2020/12/09 02:39:34;;;;;;;73.53;40.63;;;2.60;99.90;;;;;;5034129;28;20204;-77
2020/12/09 02:42:01;;;;;;;69.93;40.85;;;2.70;99.90;;;;;;5033526;28;20203;-77
2020/12/09 02:44:28;;;;;;;69.25;41.58;;;2.70;99.90;;;;;;5033655;28;20234;-77
2020/12/09 02:46:54;;;;;;;77.43;41.50;;;2.70;99.90;;;;;;5033526;28;20299;-77
2020/12/09 02:49:22;;;;;;;75.35;43.50;;;2.70;99.90;;;;;;5033356;28;20620;-77
2020/12/09 02:51:48;;;;;;;75.75;41.00;;;2.70;99.90;;;;;;5033260;28;20199;-77
2020/12/09 02:54:15;;;;;;;75.75;44.20;;;2.70;99.90;;;;;;5033253;28;20207;-77
2020/12/09 02:56:42;;;;;;;68.85;41.95;;;2.70;99.90;;;;;;5034229;28;20226;-77
2020/12/09 02:59:08;;;;;;;75.38;42.63;;;2.70;99.90;;;;;;5033593;28;20210;-77
2020/12/09 03:01:35;;;;;;;82.78;41.78;;;2.70;99.90;;;;;;5033927;28;20214;-77
2020/12/09 03:04:02;;;;;;;71.75;42.20;;;2.70;99.90;;;;;;5033947;28;20230;-77
2020/12/09 03:06:28;;;;;;;72.18;42.10;;;2.70;99.90;;;;;;5034369;28;20219;-77
2020/12/09 03:08:55;;;;;;;79.40;43.63;;;2.70;99.90;;;;;;5033902;28;20213;-77
2020/12/09 03:11:21;;;;;;;71.10;39.50;;;2.70;99.90;;;;;;5033342;28;20703;-77
2020/12/09 03:13:48;;;;;;;76.32;43.20;;;2.70;99.90;;;;;;5033541;28;20199;-77
2020/12/09 03:16:15;;;;;;;73.00;41.05;;;2.80;99.90;;;;;;5032994;28;20585;-77
2020/12/09 03:18:41;;;;;;;78.93;45.08;;;2.70;99.90;;;;;;5032538;28;20204;-77
2020/12/09 03:21:07;;;;;;;69.95;40.85;;;2.70;99.90;;;;;;5033148;28;20199;-77
2020/12/09 03:23:35;;;;;;;73.97;42.70;;;2.70;99.90;;;;;;5032862;28;20218;-77
2020/12/09 03:26:01;;;;;;;70.30;39.58;;;2.80;99.90;;;;;;5032738;28;20231;-77
2020/12/09 03:28:28;;;;;;;69.20;40.13;;;2.70;99.90;;;;;;5033104;28;20200;-77
2020/12/09 03:30:55;;;;;;;74.53;41.45;;;2.80;99.90;;;;;;5032635;28;20734;-77
2020/12/09 03:33:22;;;;;;;78.45;42.38;;;2.70;99.90;;;;;;5032895;28;20208;-77
2020/12/09 03:35:48;;;;;;;73.68;40.75;;;2.80;99.90;;;;;;5032773;28;20784;-78
2020/12/09 03:38:14;;;;;;;67.85;40.20;;;2.80;99.90;;;;;;5033275;28;20212;-77
2020/12/09 03:40:41;;;;;;;63.88;38.10;;;2.70;99.90;;;;;;5033802;28;20298;-78
2020/12/09 03:43:07;;;;;;;74.63;42.90;;;2.80;99.90;;;;;;5032987;28;20294;-78
2020/12/09 03:45:34;;;;;;;69.32;40.08;;;2.80;99.90;;;;;;5033097;28;20554;-77
2020/12/09 03:48:01;;;;;;;71.63;41.45;;;2.70;99.90;;;;;;5032894;28;20206;-77
2020/12/09 03:50:27;;;;;;;77.85;42.97;;;2.70;99.90;;;;;;5033134;28;20214;-77
2020/12/09 03:52:53;;;;;;;69.35;40.63;;;2.70;99.90;;;;;;5033123;28;20210;-77
2020/12/09 03:55:20;;;;;;;71.28;42.10;;;2.70;99.90;;;;;;5032269;28;20805;-77
2020/12/09 03:57:46;;;;;;;79.82;44.47;;;2.80;99.90;;;;;;5032662;28;20206;-78
2020/12/09 04:00:12;;;;;;;70.28;40.65;;;2.80;99.90;;;;;;5032569;28;20203;-78
2020/12/09 04:02:39;;;;;;;68.05;42.88;;;2.70;99.90;;;;;;5046016;28;20295;-77
2020/12/09 04:05:06;;;;;;;78.90;42.90;;;2.70;99.90;;;;;;5037000;28;20239;-78
2020/12/09 04:07:32;;;;;;;73.18;42.78;;;2.60;99.90;;;;;;5034428;28;20243;-78
2020/12/09 04:09:58;;;;;;;67.78;41.00;;;2.70;99.90;;;;;;5036765;28;20266;-78
2020/12/09 04:12:25;;;;;;;73.78;43.83;;;2.70;99.90;;;;;;5037880;28;20207;-78
2020/12/09 04:14:51;;;;;;;73.65;43.00;;;2.70;99.90;;;;;;5038461;28;20219;-79
2020/12/09 04:17:17;;;;;;;71.40;41.08;;;2.80;99.90;;;;;;5045113;28;20199;-77
2020/12/09 04:19:44;;;;;;;69.70;40.17;;;2.70;99.90;;;;;;5045779;28;20200;-77
2020/12/09 04:22:11;;;;;;;79.45;42.05;;;2.70;99.90;;;;;;5044512;28;20206;-77
2020/12/09 04:24:37;;;;;;;73.32;42.35;;;2.70;99.90;;;;;;5046060;28;20220;-77
2020/12/09 04:27:04;;;;;;;80.35;45.38;;;2.70;99.90;;;;;;5046323;28;20210;-77
2020/12/09 04:29:30;;;;;;;73.90;43.30;;;2.70;99.90;;;;;;5046260;28;20199;-77
2020/12/09 04:31:56;;;;;;;72.60;43.47;;;2.80;99.90;;;;;;5044403;28;20207;-77
2020/12/09 04:34:24;;;;;;;76.07;43.03;;;2.80;99.90;;;;;;5045781;28;20188;-78
2020/12/09 04:36:51;;;;;;;76.28;42.55;;;2.80;99.90;;;;;;5045491;28;20203;-77
2020/12/09 04:39:18;;;;;;;76.75;43.33;;;2.80;99.90;;;;;;5043094;28;20291;-77
2020/12/09 04:41:45;;;;;;;76.80;42.97;;;2.80;99.90;;;;;;5038305;28;20210;-78
2020/12/09 04:44:11;;;;;;;75.18;43.90;;;2.80;99.90;;;;;;5037575;28;20223;-77
2020/12/09 04:46:44;;;;;;;78.13;44.88;;;2.80;99.90;;;;;;5038145;28;20230;-77
2020/12/09 04:49:14;;;;;;;67.72;43.20;;;2.80;99.90;;;;;;5035508;28;20188;-77
2020/12/09 04:52:17;;;;;;;75.25;44.40;;;2.70;99.90;;;;;;5036294;28;20262;-77
2020/12/09 04:54:46;;;;;;;80.97;44.95;;;2.70;99.90;;;;;;5035762;28;20189;-78
2020/12/09 04:57:20;;;;;;;83.03;43.53;;;2.70;99.90;;;;;;5035347;28;20206;-78
2020/12/09 04:59:53;;;;;;;91.00;45.05;;;2.60;99.90;;;;;;5035223;28;20568;-77
2020/12/09 05:02:29;;;;;;;92.93;48.77;;;2.60;99.90;;;;;;5034146;28;20555;-77
2020/12/09 05:04:56;;;;;;;84.63;48.08;;;2.60;99.90;;;;;;5035493;28;20486;-78
2020/12/09 05:07:31;;;;;;;86.13;48.20;;;2.60;99.90;;;;;;5036409;28;20203;-77
2020/12/09 05:10:02;;;;;;;90.75;49.90;;;2.60;99.90;;;;;;5035541;28;20278;-76
2020/12/09 05:12:38;;;;;;;79.35;47.55;;;2.60;99.90;;;;;;5034890;28;20184;-76
2020/12/09 05:15:08;;;;;;;71.70;44.88;;;2.60;99.90;;;;;;5035367;28;20566;-79
2020/12/09 05:17:42;;;;;;;102.55;48.25;;;2.60;99.90;;;;;;5035358;28;20256;-76
2020/12/09 05:20:08;;;;;;;92.60;47.05;;;2.60;99.90;;;;;;5034625;28;20279;-77
2020/12/09 05:22:44;;;;;;;79.55;45.88;;;2.60;99.90;;;;;;5036284;28;20311;-77
2020/12/09 05:25:11;;;;;;;78.80;44.88;;;2.60;99.90;;;;;;5035653;28;20293;-77
2020/12/09 05:27:37;;;;;;;89.63;47.80;;;2.60;99.90;;;;;;5035290;28;20215;-77
2020/12/09 05:30:04;;;;;;;82.65;47.60;;;2.60;99.90;;;;;;5034677;28;20207;-77
2020/12/09 05:32:30;;;;;;;88.53;49.30;;;2.50;99.90;;;;;;5035082;28;20184;-77
2020/12/09 05:34:56;;;;;;;96.97;49.70;;;2.50;99.90;;;;;;5036380;28;20234;-77
2020/12/09 05:37:22;;;;;;;88.15;48.70;;;2.50;99.90;;;;;;5035365;28;20210;-77
2020/12/09 05:39:50;;;;;;;81.55;48.35;;;2.50;99.90;;;;;;5034775;28;20257;-77
2020/12/09 05:42:20;;;;;;;96.78;53.53;;;2.50;99.90;;;;;;5033672;28;20433;-77
2020/12/09 05:44:47;;;;;;;89.28;49.05;;;2.50;99.90;;;;;;5034970;28;20241;-77
2020/12/09 05:47:14;;;;;;;91.30;49.72;;;2.50;99.90;;;;;;5034951;28;20207;-77
2020/12/09 05:49:41;;;;;;;96.13;49.33;;;2.50;99.90;;;;;;5034514;28;20211;-77
2020/12/09 05:52:13;;;;;;;84.25;48.70;;;2.60;99.90;;;;;;5034395;28;20239;-77
2020/12/09 05:54:41;;;;;;;85.33;48.60;;;2.60;99.90;;;;;;5034336;28;20489;-77
2020/12/09 05:57:11;;;;;;;92.20;51.15;;;2.50;99.90;;;;;;5033839;28;20441;-77
2020/12/09 05:59:40;;;;;;;93.97;50.22;;;2.50;99.90;;;;;;5033906;28;20694;-77
2020/12/09 06:02:08;;;;;;;81.72;47.92;;;2.60;99.90;;;;;;5034430;28;20226;-77
2020/12/09 06:04:48;;;;;;;86.80;47.63;;;2.50;99.90;;;;;;5034621;28;20235;-77
2020/12/09 06:07:15;;;;;;;92.35;48.45;;;2.60;99.90;;;;;;5034380;28;20665;-77
2020/12/09 06:10:00;;;;;;;91.00;48.38;;;2.50;99.90;;;;;;5034999;28;20295;-76
2020/12/09 06:12:26;;;;;;;95.30;48.08;;;2.50;99.90;;;;;;5035928;28;20212;-77
2020/12/09 06:15:12;;;;;;;86.38;49.70;;;2.50;99.90;;;;;;5035351;28;20230;-76
2020/12/09 06:17:38;;;;;;;91.18;46.80;;;2.50;99.90;;;;;;5035082;28;20191;-76
2020/12/09 06:20:05;;;;;;;86.88;47.03;;;2.50;99.90;;;;;;5034953;28;20574;-77
2020/12/09 06:22:31;;;;;;;89.88;53.78;;;2.50;99.90;;;;;;5046532;28;20433;-76
2020/12/09 06:25:02;;;;;;;95.72;53.25;;;2.50;99.90;;;;;;5047244;28;20540;-76
2020/12/09 06:27:30;;;;;;;95.82;53.03;;;2.50;99.90;;;;;;5035626;28;20187;-77
2020/12/09 06:29:58;;;;;;;99.85;51.92;;;2.50;99.90;;;;;;5035086;28;20685;-77
2020/12/09 06:32:24;;;;;;;88.03;48.78;;;2.40;99.90;;;;;;5033951;28;20207;-77
2020/12/09 06:35:05;;;;;;;94.20;50.13;;;2.40;99.90;;;;;;5034219;28;20223;-77
2020/12/09 06:37:31;;;;;;;105.30;51.60;;;2.40;99.90;;;;;;5033247;28;20648;-77
2020/12/09 06:40:08;;;;;;;96.68;49.90;;;2.50;99.90;;;;;;5033833;28;20676;-77
2020/12/09 06:42:34;;;;;;;97.00;50.88;;;2.40;99.90;;;;;;5033376;28;20191;-77
2020/12/09 06:45:03;;;;;;;85.28;49.38;;;2.50;99.90;;;;;;5034925;28;20675;-77
2020/12/09 06:47:29;;;;;;;84.35;49.13;;;2.40;99.90;;;;;;5033339;28;20641;-77
2020/12/09 06:49:56;;;;;;;83.97;50.15;;;2.40;99.90;;;;;;5033314;28;20702;-77
2020/12/09 06:52:31;;;;;;;103.22;49.80;;;2.50;99.90;;;;;;5033904;28;20200;-77
2020/12/09 06:54:58;;;;;;;89.25;49.47;;;2.50;99.90;;;;;;5033364;28;20223;-77
2020/12/09 06:57:27;;;;;;;95.63;48.90;;;2.50;99.90;;;;;;5033504;28;20235;-77
2020/12/09 07:00:15;;;;;;;87.88;49.42;;;2.50;99.90;;;;;;5033354;28;20215;-77
2020/12/09 07:02:41;;;;;;;81.40;46.83;;;2.50;99.90;;;;;;5033556;28;20210;-77
2020/12/09 07:05:12;;;;;;;88.63;49.08;;;2.50;99.90;;;;;;5032562;28;20708;-77
2020/12/09 07:07:43;;;;;;;90.80;51.30;;;2.50;99.90;;;;;;5032924;28;20196;-77
2020/12/09 07:10:26;;;;;;;81.40;47.60;;;2.40;99.90;;;;;;5032939;28;20188;-77
2020/12/09 07:13:07;;;;;;;98.38;50.47;;;2.40;99.90;;;;;;5030779;28;20301;-78
2020/12/09 07:15:35;;;;;;;93.60;50.03;;;2.40;99.90;;;;;;5032670;28;20219;-78
2020/12/09 07:18:02;;;;;;;90.63;48.58;;;2.50;99.90;;;;;;5032427;28;20699;-77
2020/12/09 07:20:28;;;;;;;82.50;47.63;;;2.40;99.90;;;;;;5032716;28;20203;-77
2020/12/09 07:22:54;;;;;;;83.90;47.20;;;2.40;99.90;;;;;;5032816;28;20204;-76
2020/12/09 07:25:21;;;;;;;102.78;50.28;;;2.40;99.90;;;;;;5032357;28;20234;-77
2020/12/09 07:27:48;;;;;;;89.45;49.97;;;2.50;99.90;;;;;;5033380;28;20227;-77
2020/12/09 07:30:17;;;;;;;83.45;46.85;;;2.50;99.90;;;;;;5032929;28;20302;-78
2020/12/09 07:32:46;;;;;;;85.80;47.28;;;2.50;99.90;;;;;;5032790;28;20210;-77
2020/12/09 07:35:13;;;;;;;84.68;48.35;;;2.50;99.90;;;;;;5033031;28;20247;-78
2020/12/09 07:37:42;;;;;;;87.07;48.63;;;2.50;99.90;;;;;;5033692;28;20242;-77
2020/12/09 07:40:10;;;;;;;93.18;47.05;;;2.50;99.90;;;;;;5033662;28;20199;-77
2020/12/09 07:42:37;;;;;;;91.78;48.50;;;2.60;99.90;;;;;;5033917;28;20223;-77
2020/12/09 07:45:09;;;;;;;89.50;45.33;;;2.60;99.90;;;;;;5036474;28;20232;-78
2020/12/09 07:47:36;;;;;;;84.32;47.55;;;2.50;99.90;;;;;;5036386;28;20573;-77
2020/12/09 07:50:05;;;;;;;83.60;44.67;;;2.50;99.90;;;;;;5037038;28;20191;-77
2020/12/09 07:52:33;;;;;;;78.15;43.40;;;2.50;99.90;;;;;;5036225;28;20207;-77
2020/12/09 07:55:01;;;;;;;84.40;48.88;;;2.50;99.90;;;;;;5036657;28;20226;-78
2020/12/09 07:57:32;;;;;;;77.32;46.90;;;2.40;99.90;;;;;;5036532;28;20204;-79
2020/12/09 07:59:59;;;;;;;81.13;48.00;;;2.40;99.90;;;;;;5036539;28;20699;-77
2020/12/09 08:02:28;;;;;;;91.55;49.38;;;2.40;99.90;;;;;;5037200;28;20198;-77
2020/12/09 08:05:11;;;;;;;84.40;48.40;;;2.40;99.90;;;;;;5036197;28;20700;-78
2020/12/09 08:08:07;;;;;;;86.47;44.95;;;2.40;99.90;;;;;;5036693;28;20187;-77
2020/12/09 08:10:36;;;;;;;85.30;48.05;;;2.40;99.90;;;;;;5003258;28;20204;-77
2020/12/09 08:13:07;;;;;;;85.18;47.50;;;2.40;99.90;;;;;;5036423;28;20215;-78
2020/12/09 08:15:34;;;;;;;80.28;44.58;;;2.50;99.90;;;;;;5036610;28;20251;-77
2020/12/09 08:18:02;;;;;;;84.22;45.75;;;2.50;99.90;;;;;;5036418;28;20204;-77
2020/12/09 08:20:29;;;;;;;76.80;46.38;;;2.50;99.90;;;;;;5036498;28;20302;-77
2020/12/09 08:22:57;;;;;;;81.95;46.40;;;2.50;99.90;;;;;;5041155;28;20212;-78
2020/12/09 08:25:25;;;;;;;83.13;45.58;;;2.50;99.90;;;;;;5046012;28;20227;-77
2020/12/09 08:27:52;;;;;;;82.75;46.45;;;2.50;99.90;;;;;;5035862;28;20294;-77
2020/12/09 08:30:24;;;;;;;82.13;46.13;;;2.50;99.90;;;;;;5035659;28;20215;-78
2020/12/09 08:33:02;;;;;;;86.38;47.25;;;2.50;99.90;;;;;;5036106;28;20214;-77
2020/12/09 08:35:41;;;;;;;83.28;44.92;;;2.50;99.90;;;;;;5036040;28;20235;-78
2020/12/09 08:38:08;;;;;;;84.90;47.15;;;2.50;99.90;;;;;;5037229;28;20188;-77
2020/12/09 08:40:34;;;;;;;78.63;44.67;;;2.50;99.90;;;;;;5035492;28;20219;-77
2020/12/09 08:43:00;;;;;;;76.38;45.15;;;2.50;99.90;;;;;;5039637;28;20208;-79
2020/12/09 08:45:27;;;;;;;97.95;51.63;;;2.50;99.90;;;;;;5051555;28;20219;-79
2020/12/09 08:47:54;;;;;;;93.60;45.83;;;2.50;99.90;;;;;;5048850;28;20207;-79
2020/12/09 08:50:20;;;;;;;80.28;44.25;;;2.60;99.90;;;;;;5039214;28;20210;-77
2020/12/09 08:52:47;;;;;;;82.90;46.08;;;2.60;99.90;;;;;;5036036;28;20208;-77
2020/12/09 08:55:14;;;;;;;80.32;47.70;;;2.60;99.90;;;;;;5035430;28;20227;-77
2020/12/09 08:57:40;;;;;;;80.03;42.67;;;2.60;99.90;;;;;;5037201;28;20188;-78
2020/12/09 09:00:09;;;;;;;83.22;45.60;;;2.60;99.90;;;;;;5035366;28;20188;-77
2020/12/09 09:02:35;;;;;;;79.05;45.28;;;2.60;99.90;;;;;;5035556;28;20238;-76
2020/12/09 09:05:01;;;;;;;74.60;43.42;;;2.60;99.90;;;;;;5035924;28;20259;-77
2020/12/09 09:07:28;;;;;;;78.15;45.78;;;2.70;99.90;;;;;;5037323;28;20292;-78
2020/12/09 09:09:55;;;;;;;74.05;46.08;;;2.60;99.90;;;;;;5035661;28;20204;-77
2020/12/09 09:12:21;;;;;;;69.72;43.05;;;2.60;99.90;;;;;;5036009;28;20554;-76
2020/12/09 09:14:49;;;;;;;82.60;47.15;;;2.60;99.90;;;;;;5035537;28;20228;-77
2020/12/09 09:17:15;;;;;;;71.78;42.40;;;2.60;99.90;;;;;;5035416;28;20205;-78
2020/12/09 09:19:41;;;;;;;80.50;45.30;;;2.60;99.90;;;;;;5035463;28;20208;-77
2020/12/09 09:22:11;;;;;;;71.75;43.25;;;2.60;99.90;;;;;;5037260;28;20203;-77
2020/12/09 09:24:37;;;;;;;80.88;46.42;;;2.70;99.90;;;;;;5037013;28;20228;-77
2020/12/09 09:27:09;;;;;;;77.05;43.53;;;2.60;99.90;;;;;;5061554;22;20232;-77
2020/12/09 09:29:35;;;;;;;79.55;46.13;;;2.60;99.90;;;;;;5037875;28;20246;-76
2020/12/09 09:32:02;;;;;;;85.47;46.80;;;2.70;99.90;;;;;;5036741;28;20222;-77
2020/12/09 09:34:28;;;;;;;77.13;43.95;;;2.70;99.90;;;;;;5036698;28;20203;-77
2020/12/09 09:36:54;;;;;;;73.28;43.67;;;2.80;99.90;;;;;;5036755;28;20224;-77
2020/12/09 09:39:21;;;;;;;74.55;42.17;;;2.80;99.90;;;;;;5036907;28;20321;-77
2020/12/09 09:41:47;;;;;;;89.65;49.58;;;2.70;99.90;;;;;;5037192;28;20290;-77
2020/12/09 09:44:14;;;;;;;85.68;47.55;;;2.80;99.90;;;;;;5036705;28;20224;-77
2020/12/09 09:46:40;;;;;;;87.63;44.63;;;2.80;99.90;;;;;;5036799;28;20223;-76
2020/12/09 09:49:07;;;;;;;79.88;46.03;;;2.80;99.90;;;;;;5036835;28;20363;-78
2020/12/09 09:51:33;;;;;;;82.82;45.53;;;2.80;99.90;;;;;;5036482;28;20703;-78
2020/12/09 09:53:59;;;;;;;73.15;43.35;;;2.80;99.90;;;;;;5038132;28;20287;-83
2020/12/09 09:56:25;;;;;;;75.80;45.20;;;2.80;99.90;;;;;;5038367;28;20223;-78
2020/12/09 09:58:52;;;;;;;74.40;42.53;;;2.80;99.90;;;;;;5037234;28;20204;-79
2020/12/09 10:01:19;;;;;;;80.05;44.58;;;2.70;99.90;;;;;;5036993;28;20553;-78
2020/12/09 10:03:45;;;;;;;71.82;42.78;;;2.70;99.90;;;;;;5036206;28;20192;-78
2020/12/09 10:06:11;;;;;;;76.95;44.72;;;2.70;99.90;;;;;;5036226;28;20232;-78
2020/12/09 10:08:38;;;;;;;78.60;41.63;;;2.70;99.90;;;;;;5035777;28;20204;-78
2020/12/09 10:11:04;;;;;;;74.88;41.92;;;2.70;99.90;;;;;;5035933;28;20210;-78
2020/12/09 10:13:31;;;;;;;78.18;42.85;;;2.70;99.90;;;;;;5036087;28;20216;-79
2020/12/09 10:15:58;;;;;;;77.80;43.72;;;2.80;99.90;;;;;;5035440;28;20599;-79
2020/12/09 10:18:25;;;;;;;70.13;41.72;;;2.90;99.90;;;;;;5036253;28;20279;-78
2020/12/09 10:20:51;;;;;;;72.38;42.60;;;2.90;99.90;;;;;;5037026;28;20203;-78
2020/12/09 10:23:18;;;;;;;73.35;45.30;;;3.00;99.90;;;;;;5035652;28;20613;-78
2020/12/09 10:25:45;;;;;;;84.88;44.85;;;2.90;99.90;;;;;;5035456;28;20277;-78
2020/12/09 10:28:12;;;;;;;73.13;43.05;;;3.00;99.90;;;;;;5035353;28;20320;-78
2020/12/09 10:30:39;;;;;;;64.75;41.28;;;3.00;99.90;;;;;;5035388;28;20203;-78
2020/12/09 10:33:06;;;;;;;75.00;42.70;;;3.00;99.90;;;;;;5035550;28;20203;-78
2020/12/09 10:35:34;;;;;;;67.65;42.53;;;3.00;99.90;;;;;;5036174;28;20655;-78
2020/12/09 10:38:00;;;;;;;77.88;43.30;;;3.00;99.90;;;;;;5037162;28;20207;-78
2020/12/09 10:40:27;;;;;;;76.35;42.60;;;3.00;99.90;;;;;;5040780;28;20655;-78
2020/12/09 10:42:53;;;;;;;72.40;41.03;;;3.00;99.90;;;;;;5043530;28;20215;-78
2020/12/09 10:45:19;;;;;;;69.53;42.40;;;3.00;99.90;;;;;;5043862;28;20234;-78
2020/12/09 10:47:45;;;;;;;71.70;40.70;;;3.10;99.90;;;;;;5037154;28;20203;-78
2020/12/09 10:50:12;;;;;;;68.97;40.63;;;3.00;99.90;;;;;;5036520;28;20188;-78
2020/12/09 10:52:39;;;;;;;70.97;40.97;;;3.00;99.90;;;;;;5036380;28;20203;-78
2020/12/09 10:55:07;;;;;;;71.50;41.00;;;3.00;99.90;;;;;;5035955;28;20199;-78
2020/12/09 10:57:34;;;;;;;74.18;43.50;;;3.00;99.90;;;;;;5034987;28;20200;-78
2020/12/09 11:00:00;;;;;;;69.88;40.97;;;3.10;99.90;;;;;;5034949;28;20204;-77
2020/12/09 11:02:26;;;;;;;96.65;46.70;;;3.10;99.90;;;;;;5035635;28;20210;-78
2020/12/09 11:04:52;;;;;;;72.97;42.28;;;3.10;99.90;;;;;;5036750;28;20235;-79
2020/12/09 11:07:19;;;;;;;75.43;41.85;;;3.10;99.90;;;;;;5035754;28;20234;-78
2020/12/09 11:09:46;;;;;;;71.63;40.92;;;3.10;99.90;;;;;;5034570;28;20203;-78
2020/12/09 11:12:12;;;;;;;70.68;41.05;;;3.30;99.90;;;;;;5033661;28;20188;-77
2020/12/09 11:14:39;;;;;;;73.45;43.22;;;3.20;99.90;;;;;;5033923;28;20216;-77
2020/12/09 11:17:05;;;;;;;71.53;41.88;;;3.20;99.90;;;;;;5034313;28;20588;-79
2020/12/09 11:19:33;;;;;;;74.45;41.92;;;3.10;99.90;;;;;;5035896;28;20192;-78
2020/12/09 11:21:59;;;;;;;60.70;39.15;;;3.10;99.90;;;;;;5041078;28;20208;-78
2020/12/09 11:24:25;;;;;;;72.63;41.38;;;3.30;99.90;;;;;;5042914;28;20222;-78
2020/12/09 11:26:53;;;;;;;61.00;37.13;;;3.30;99.90;;;;;;5044169;28;20235;-78
2020/12/09 11:29:19;;;;;;;64.85;40.10;;;3.30;99.90;;;;;;5042911;28;20223;-78
2020/12/09 11:31:46;;;;;;;63.40;39.05;;;3.30;99.90;;;;;;5038498;28;20253;-77
2020/12/09 11:34:12;;;;;;;67.25;37.70;;;3.20;99.90;;;;;;5033734;28;20188;-78
2020/12/09 11:36:38;;;;;;;72.53;38.92;;;3.20;99.90;;;;;;5034114;28;20719;-77
2020/12/09 11:39:05;;;;;;;63.45;38.67;;;3.20;99.90;;;;;;5033892;28;20203;-77
2020/12/09 11:41:33;;;;;;;65.45;39.67;;;3.20;99.90;;;;;;5033656;28;20282;-77
2020/12/09 11:44:01;;;;;;;68.38;38.22;;;3.10;99.90;;;;;;5039083;28;20199;-77
2020/12/09 11:46:28;;;;;;;72.10;39.30;;;3.10;99.90;;;;;;5037948;28;20269;-78
2020/12/09 11:48:55;;;;;;;73.10;39.67;;;3.10;99.90;;;;;;5037402;28;20207;-78
2020/12/09 11:51:21;;;;;;;71.70;38.85;;;3.20;99.90;;;;;;5038645;28;20278;-78
2020/12/09 11:53:48;;;;;;;64.90;37.92;;;3.20;99.90;;;;;;5040542;28;20247;-78
2020/12/09 11:56:21;;;;;;;67.95;39.10;;;3.30;99.90;;;;;;5041647;28;20311;-78
2020/12/09 11:58:48;;;;;;;67.72;39.15;;;3.40;99.90;;;;;;5039280;28;20192;-78
2020/12/09 12:01:16;;;;;;;61.30;35.83;;;3.30;99.90;;;;;;5034667;28;20200;-77
2020/12/09 12:03:42;;;;;;;63.10;36.47;;;3.30;99.90;;;;;;5036151;28;20215;-77
2020/12/09 12:06:13;;;;;;;67.93;38.55;;;3.40;99.90;;;;;;5034407;28;20315;-78
2020/12/09 12:08:39;;;;;;;62.10;36.55;;;3.30;99.90;;;;;;5033774;28;20563;-77
2020/12/09 12:11:05;;;;;;;65.50;39.13;;;3.30;99.90;;;;;;5036857;28;20188;-78
2020/12/09 12:13:31;;;;;;;62.95;34.78;;;3.30;99.90;;;;;;5042335;28;20210;-78
2020/12/09 12:15:58;;;;;;;63.08;37.80;;;3.30;99.90;;;;;;5034660;28;20219;-77
2020/12/09 12:18:25;;;;;;;69.65;39.58;;;3.30;99.90;;;;;;5034711;28;20290;-78
2020/12/09 12:20:51;;;;;;;68.13;38.63;;;3.40;99.90;;;;;;5035945;28;20294;-78
2020/12/09 12:23:17;;;;;;;68.43;36.25;;;3.40;99.90;;;;;;5034876;28;20195;-78
2020/12/09 12:25:46;;;;;;;60.13;36.42;;;3.30;99.90;;;;;;5035327;28;20734;-78
2020/12/09 12:28:12;;;;;;;65.97;36.85;;;3.20;99.90;;;;;;5034781;28;20314;-77
2020/12/09 12:30:38;;;;;;;63.22;35.10;;;3.30;99.90;;;;;;5037740;28;20192;-78
2020/12/09 12:33:05;;;;;;;66.00;37.67;;;3.30;99.90;;;;;;5039081;28;20299;-77
2020/12/09 12:35:32;;;;;;;59.70;33.67;;;3.30;99.90;;;;;;5038390;28;20726;-77
2020/12/09 12:37:58;;;;;;;68.20;36.95;;;3.40;99.90;;;;;;5038061;28;20192;-78